Terminal Aerodrome Forecast
Issued by NWS

Home | Current Version | Previous Version | Text Only | Print | Product List | Glossary On
Versions: 1 2 3 4 5 6 7 8 9 10
304
FTUS42 TJSJ 232322
TAFNCM
TAF
TNCM 232322Z 2400/2424 10013KT P6SM VCSH FEW017 BKN035
     FM240700 09008KT P6SM VCSH SCT018 BKN040
     FM241450 12014KT P6SM FEW022 SCT050 BKN100
     FM242300 09010KT P6SM FEW019 SCT040 SCT120=

USA.gov is the U.S. government's official web portal to all federal, state and local government web resources and services.